sensor_id;sensor_type;location;lat;lon;timestamp;P1;P2;P0
40947;PMS5003;49382;-25.924;28.194;2022-09-09T00:01:25;133;129;
40947;PMS5003;49382;-25.924;28.194;2022-09-09T00:03:47;130;126;
40947;PMS5003;49382;-25.924;28.194;2022-09-09T00:06:13;112;108;
40947;PMS5003;49382;-25.924;28.194;2022-09-09T00:08:38;109;108;
40947;PMS5003;49382;-25.924;28.194;2022-09-09T00:11:02;114;108;
40947;PMS5003;49382;-25.924;28.194;2022-09-09T00:13:28;111;109;
40947;PMS5003;49382;-25.924;28.194;2022-09-09T00:15:54;122;117;
40947;PMS5003;49382;-25.924;28.194;2022-09-09T00:18:20;127;124;
40947;PMS5003;49382;-25.924;28.194;2022-09-09T00:20:45;140;137;
40947;PMS5003;49382;-25.924;28.194;2022-09-09T00:23:11;123;118;
40947;PMS5003;49382;-25.924;28.194;2022-09-09T00:25:37;132;129;
40947;PMS5003;49382;-25.924;28.194;2022-09-09T00:28:00;123;119;
40947;PMS5003;49382;-25.924;28.194;2022-09-09T00:30:28;150;145;
40947;PMS5003;49382;-25.924;28.194;2022-09-09T00:32:53;151;144;
40947;PMS5003;49382;-25.924;28.194;2022-09-09T00:35:18;140;134;
40947;PMS5003;49382;-25.924;28.194;2022-09-09T00:37:42;99;94;
40947;PMS5003;49382;-25.924;28.194;2022-09-09T00:40:11;86;85;
40947;PMS5003;49382;-25.924;28.194;2022-09-09T00:42:35;76;73;
40947;PMS5003;49382;-25.924;28.194;2022-09-09T00:44:59;74;72;
40947;PMS5003;49382;-25.924;28.194;2022-09-09T00:47:32;81;79;
40947;PMS5003;49382;-25.924;28.194;2022-09-09T00:49:52;91;89;
40947;PMS5003;49382;-25.924;28.194;2022-09-09T00:52:21;103;101;
40947;PMS5003;49382;-25.924;28.194;2022-09-09T00:54:44;112;110;
40947;PMS5003;49382;-25.924;28.194;2022-09-09T00:57:12;109;107;
40947;PMS5003;49382;-25.924;28.194;2022-09-09T00:59:34;101;99;
40947;PMS5003;49382;-25.924;28.194;2022-09-09T01:01:58;101;101;
40947;PMS5003;49382;-25.924;28.194;2022-09-09T01:04:25;101;97;
40947;PMS5003;49382;-25.924;28.194;2022-09-09T01:06:49;92;90;
40947;PMS5003;49382;-25.924;28.194;2022-09-09T01:09:16;94;91;
40947;PMS5003;49382;-25.924;28.194;2022-09-09T01:11:42;87;84;
40947;PMS5003;49382;-25.924;28.194;2022-09-09T01:14:11;79;77;
40947;PMS5003;49382;-25.924;28.194;2022-09-09T01:16:29;76;75;
40947;PMS5003;49382;-25.924;28.194;2022-09-09T01:18:55;93;90;
40947;PMS5003;49382;-25.924;28.194;2022-09-09T01:21:22;96;94;
40947;PMS5003;49382;-25.924;28.194;2022-09-09T01:23:51;89;85;
40947;PMS5003;49382;-25.924;28.194;2022-09-09T01:28:37;87;85;
40947;PMS5003;49382;-25.924;28.194;2022-09-09T01:31:02;87;85;
40947;PMS5003;49382;-25.924;28.194;2022-09-09T01:33:28;84;82;
40947;PMS5003;49382;-25.924;28.194;2022-09-09T01:35:55;90;87;
40947;PMS5003;49382;-25.924;28.194;2022-09-09T01:38:19;95;92;
40947;PMS5003;49382;-25.924;28.194;2022-09-09T01:40:44;91;89;
40947;PMS5003;49382;-25.924;28.194;2022-09-09T01:43:10;90;88;
40947;PMS5003;49382;-25.924;28.194;2022-09-09T01:45:36;92;89;
40947;PMS5003;49382;-25.924;28.194;2022-09-09T01:48:02;86;85;
40947;PMS5003;49382;-25.924;28.194;2022-09-09T01:50:27;91;87;
40947;PMS5003;49382;-25.924;28.194;2022-09-09T01:52:54;90;87;
40947;PMS5003;49382;-25.924;28.194;2022-09-09T01:55:18;90;89;
40947;PMS5003;49382;-25.924;28.194;2022-09-09T01:57:45;92;88;
40947;PMS5003;49382;-25.924;28.194;2022-09-09T02:00:10;86;85;
40947;PMS5003;49382;-25.924;28.194;2022-09-09T02:02:36;85;81;
40947;PMS5003;49382;-25.924;28.194;2022-09-09T02:05:03;75;74;
40947;PMS5003;49382;-25.924;28.194;2022-09-09T02:07:30;68;66;
40947;PMS5003;49382;-25.924;28.194;2022-09-09T02:09:53;74;73;
40947;PMS5003;49382;-25.924;28.194;2022-09-09T02:12:16;67;67;
40947;PMS5003;49382;-25.924;28.194;2022-09-09T02:14:42;71;71;
40947;PMS5003;49382;-25.924;28.194;2022-09-09T02:17:08;78;75;
40947;PMS5003;49382;-25.924;28.194;2022-09-09T02:19:34;71;70;
40947;PMS5003;49382;-25.924;28.194;2022-09-09T02:21:59;74;72;
40947;PMS5003;49382;-25.924;28.194;2022-09-09T02:24:23;66;65;
40947;PMS5003;49382;-25.924;28.194;2022-09-09T02:26:49;66;64;
40947;PMS5003;49382;-25.924;28.194;2022-09-09T02:29:15;60;58;
40947;PMS5003;49382;-25.924;28.194;2022-09-09T02:31:39;63;61;
40947;PMS5003;49382;-25.924;28.194;2022-09-09T02:34:05;60;59;
40947;PMS5003;49382;-25.924;28.194;2022-09-09T02:36:31;62;61;
40947;PMS5003;49382;-25.924;28.194;2022-09-09T02:38:55;65;65;
40947;PMS5003;49382;-25.924;28.194;2022-09-09T02:41:22;68;68;
40947;PMS5003;49382;-25.924;28.194;2022-09-09T02:43:46;68;66;
40947;PMS5003;49382;-25.924;28.194;2022-09-09T02:46:16;66;64;
40947;PMS5003;49382;-25.924;28.194;2022-09-09T02:48:39;60;60;
40947;PMS5003;49382;-25.924;28.194;2022-09-09T02:51:04;66;65;
40947;PMS5003;49382;-25.924;28.194;2022-09-09T02:53:31;58;57;
40947;PMS5003;49382;-25.924;28.194;2022-09-09T02:55:54;54;54;
40947;PMS5003;49382;-25.924;28.194;2022-09-09T02:58:19;60;59;
40947;PMS5003;49382;-25.924;28.194;2022-09-09T03:00:45;56;56;
40947;PMS5003;49382;-25.924;28.194;2022-09-09T03:03:09;61;59;
40947;PMS5003;49382;-25.924;28.194;2022-09-09T03:05:35;65;64;
40947;PMS5003;49382;-25.924;28.194;2022-09-09T03:08:00;70;69;
40947;PMS5003;49382;-25.924;28.194;2022-09-09T03:10:25;74;72;
40947;PMS5003;49382;-25.924;28.194;2022-09-09T03:12:51;64;63;
40947;PMS5003;49382;-25.924;28.194;2022-09-09T03:15:17;68;67;
40947;PMS5003;49382;-25.924;28.194;2022-09-09T03:17:42;70;68;
40947;PMS5003;49382;-25.924;28.194;2022-09-09T03:20:08;67;67;
40947;PMS5003;49382;-25.924;28.194;2022-09-09T03:22:33;75;75;
40947;PMS5003;49382;-25.924;28.194;2022-09-09T03:24:59;72;69;
40947;PMS5003;49382;-25.924;28.194;2022-09-09T03:27:24;62;60;
40947;PMS5003;49382;-25.924;28.194;2022-09-09T03:29:50;68;66;
40947;PMS5003;49382;-25.924;28.194;2022-09-09T03:32:16;68;67;
40947;PMS5003;49382;-25.924;28.194;2022-09-09T03:34:41;60;60;
40947;PMS5003;49382;-25.924;28.194;2022-09-09T03:37:07;63;60;
40947;PMS5003;49382;-25.924;28.194;2022-09-09T03:39:33;66;65;
40947;PMS5003;49382;-25.924;28.194;2022-09-09T03:41:58;60;60;
40947;PMS5003;49382;-25.924;28.194;2022-09-09T03:44:23;63;62;
40947;PMS5003;49382;-25.924;28.194;2022-09-09T03:46:48;68;66;
40947;PMS5003;49382;-25.924;28.194;2022-09-09T03:49:14;98;95;
40947;PMS5003;49382;-25.924;28.194;2022-09-09T03:51:40;108;103;
40947;PMS5003;49382;-25.924;28.194;2022-09-09T03:54:05;118;115;
40947;PMS5003;49382;-25.924;28.194;2022-09-09T03:56:30;109;108;
40947;PMS5003;49382;-25.924;28.194;2022-09-09T03:58:56;104;101;
40947;PMS5003;49382;-25.924;28.194;2022-09-09T04:01:21;104;102;
40947;PMS5003;49382;-25.924;28.194;2022-09-09T04:03:47;97;94;
40947;PMS5003;49382;-25.924;28.194;2022-09-09T04:06:12;91;90;
40947;PMS5003;49382;-25.924;28.194;2022-09-09T04:08:37;99;96;
40947;PMS5003;49382;-25.924;28.194;2022-09-09T04:11:03;103;101;
40947;PMS5003;49382;-25.924;28.194;2022-09-09T04:13:28;71;70;
40947;PMS5003;49382;-25.924;28.194;2022-09-09T04:15:54;88;83;
40947;PMS5003;49382;-25.924;28.194;2022-09-09T04:18:19;89;88;
40947;PMS5003;49382;-25.924;28.194;2022-09-09T04:20:45;84;84;
40947;PMS5003;49382;-25.924;28.194;2022-09-09T04:23:10;92;89;
40947;PMS5003;49382;-25.924;28.194;2022-09-09T04:25:35;80;78;
40947;PMS5003;49382;-25.924;28.194;2022-09-09T04:28:01;63;62;
40947;PMS5003;49382;-25.924;28.194;2022-09-09T04:30:26;77;74;
40947;PMS5003;49382;-25.924;28.194;2022-09-09T04:32:52;73;71;
40947;PMS5003;49382;-25.924;28.194;2022-09-09T04:35:17;69;67;
40947;PMS5003;49382;-25.924;28.194;2022-09-09T04:37:43;66;65;
40947;PMS5003;49382;-25.924;28.194;2022-09-09T04:40:08;99;97;
40947;PMS5003;49382;-25.924;28.194;2022-09-09T04:42:34;107;105;
40947;PMS5003;49382;-25.924;28.194;2022-09-09T04:44:59;101;99;
40947;PMS5003;49382;-25.924;28.194;2022-09-09T04:47:24;101;96;
40947;PMS5003;49382;-25.924;28.194;2022-09-09T04:49:50;89;88;
40947;PMS5003;49382;-25.924;28.194;2022-09-09T04:52:16;83;80;
40947;PMS5003;49382;-25.924;28.194;2022-09-09T04:54:41;73;73;
40947;PMS5003;49382;-25.924;28.194;2022-09-09T04:57:06;94;91;
40947;PMS5003;49382;-25.924;28.194;2022-09-09T04:59:31;106;100;
40947;PMS5003;49382;-25.924;28.194;2022-09-09T05:01:57;106;103;
40947;PMS5003;49382;-25.924;28.194;2022-09-09T05:04:23;101;98;
40947;PMS5003;49382;-25.924;28.194;2022-09-09T05:06:48;101;98;
40947;PMS5003;49382;-25.924;28.194;2022-09-09T05:09:14;89;86;
40947;PMS5003;49382;-25.924;28.194;2022-09-09T05:11:39;92;90;
40947;PMS5003;49382;-25.924;28.194;2022-09-09T05:14:04;79;77;
40947;PMS5003;49382;-25.924;28.194;2022-09-09T05:16:30;68;67;
40947;PMS5003;49382;-25.924;28.194;2022-09-09T05:18:55;67;67;
40947;PMS5003;49382;-25.924;28.194;2022-09-09T05:21:21;55;54;
40947;PMS5003;49382;-25.924;28.194;2022-09-09T05:23:46;57;55;
40947;PMS5003;49382;-25.924;28.194;2022-09-09T05:26:12;60;57;
40947;PMS5003;49382;-25.924;28.194;2022-09-09T05:28:37;58;57;
40947;PMS5003;49382;-25.924;28.194;2022-09-09T05:31:04;63;61;
40947;PMS5003;49382;-25.924;28.194;2022-09-09T05:33:28;59;58;
40947;PMS5003;49382;-25.924;28.194;2022-09-09T05:35:57;56;56;
40947;PMS5003;49382;-25.924;28.194;2022-09-09T05:38:18;57;55;
40947;PMS5003;49382;-25.924;28.194;2022-09-09T05:40:47;64;62;
40947;PMS5003;49382;-25.924;28.194;2022-09-09T05:43:09;71;69;
40947;PMS5003;49382;-25.924;28.194;2022-09-09T05:45:35;74;70;
40947;PMS5003;49382;-25.924;28.194;2022-09-09T05:48:00;74;73;
40947;PMS5003;49382;-25.924;28.194;2022-09-09T05:50:25;75;72;
40947;PMS5003;49382;-25.924;28.194;2022-09-09T05:52:54;73;72;
40947;PMS5003;49382;-25.924;28.194;2022-09-09T05:55:17;78;76;
40947;PMS5003;49382;-25.924;28.194;2022-09-09T05:57:42;79;78;
40947;PMS5003;49382;-25.924;28.194;2022-09-09T06:00:08;94;90;
40947;PMS5003;49382;-25.924;28.194;2022-09-09T06:02:33;84;80;
40947;PMS5003;49382;-25.924;28.194;2022-09-09T06:04:59;93;90;
40947;PMS5003;49382;-25.924;28.194;2022-09-09T06:07:24;88;87;
40947;PMS5003;49382;-25.924;28.194;2022-09-09T06:09:49;66;64;
40947;PMS5003;49382;-25.924;28.194;2022-09-09T06:12:15;58;56;
40947;PMS5003;49382;-25.924;28.194;2022-09-09T06:14:41;62;61;
40947;PMS5003;49382;-25.924;28.194;2022-09-09T06:17:06;73;68;
40947;PMS5003;49382;-25.924;28.194;2022-09-09T06:19:31;65;64;
40947;PMS5003;49382;-25.924;28.194;2022-09-09T06:21:56;71;70;
40947;PMS5003;49382;-25.924;28.194;2022-09-09T06:24:22;63;63;
40947;PMS5003;49382;-25.924;28.194;2022-09-09T06:26:47;67;67;
40947;PMS5003;49382;-25.924;28.194;2022-09-09T06:29:13;74;73;
40947;PMS5003;49382;-25.924;28.194;2022-09-09T06:31:38;69;67;
40947;PMS5003;49382;-25.924;28.194;2022-09-09T06:34:04;66;66;
40947;PMS5003;49382;-25.924;28.194;2022-09-09T06:36:30;63;61;
40947;PMS5003;49382;-25.924;28.194;2022-09-09T06:38:55;56;56;
40947;PMS5003;49382;-25.924;28.194;2022-09-09T06:41:21;54;53;
40947;PMS5003;49382;-25.924;28.194;2022-09-09T06:43:45;59;58;
40947;PMS5003;49382;-25.924;28.194;2022-09-09T06:46:11;53;52;
40947;PMS5003;49382;-25.924;28.194;2022-09-09T06:48:36;52;52;
40947;PMS5003;49382;-25.924;28.194;2022-09-09T06:51:02;36;35;
40947;PMS5003;49382;-25.924;28.194;2022-09-09T06:53:26;26;26;
40947;PMS5003;49382;-25.924;28.194;2022-09-09T06:55:52;25;25;
40947;PMS5003;49382;-25.924;28.194;2022-09-09T06:58:17;40;40;
40947;PMS5003;49382;-25.924;28.194;2022-09-09T07:00:43;32;32;
40947;PMS5003;49382;-25.924;28.194;2022-09-09T07:03:09;27;27;
40947;PMS5003;49382;-25.924;28.194;2022-09-09T07:05:33;27;27;
40947;PMS5003;49382;-25.924;28.194;2022-09-09T07:07:59;31;29;
40947;PMS5003;49382;-25.924;28.194;2022-09-09T07:10:25;26;25;
40947;PMS5003;49382;-25.924;28.194;2022-09-09T07:12:51;30;30;
40947;PMS5003;49382;-25.924;28.194;2022-09-09T07:15:16;32;30;
40947;PMS5003;49382;-25.924;28.194;2022-09-09T07:17:41;32;32;
40947;PMS5003;49382;-25.924;28.194;2022-09-09T07:20:07;36;35;
40947;PMS5003;49382;-25.924;28.194;2022-09-09T07:22:32;33;32;
40947;PMS5003;49382;-25.924;28.194;2022-09-09T07:24:57;35;35;
40947;PMS5003;49382;-25.924;28.194;2022-09-09T07:27:22;34;34;
40947;PMS5003;49382;-25.924;28.194;2022-09-09T07:29:48;35;34;
40947;PMS5003;49382;-25.924;28.194;2022-09-09T07:32:13;35;34;
40947;PMS5003;49382;-25.924;28.194;2022-09-09T07:34:38;276;276;
40947;PMS5003;49382;-25.924;28.194;2022-09-09T07:37:04;203;202;
40947;PMS5003;49382;-25.924;28.194;2022-09-09T07:39:29;40;39;
40947;PMS5003;49382;-25.924;28.194;2022-09-09T07:41:54;39;37;
40947;PMS5003;49382;-25.924;28.194;2022-09-09T07:44:21;36;36;
40947;PMS5003;49382;-25.924;28.194;2022-09-09T07:46:45;32;32;
40947;PMS5003;49382;-25.924;28.194;2022-09-09T07:49:11;47;46;
40947;PMS5003;49382;-25.924;28.194;2022-09-09T07:51:37;31;30;
40947;PMS5003;49382;-25.924;28.194;2022-09-09T07:54:03;30;30;
40947;PMS5003;49382;-25.924;28.194;2022-09-09T07:56:29;29;29;
40947;PMS5003;49382;-25.924;28.194;2022-09-09T07:58:54;33;31;
40947;PMS5003;49382;-25.924;28.194;2022-09-09T08:01:20;28;28;
40947;PMS5003;49382;-25.924;28.194;2022-09-09T08:03:45;33;33;
40947;PMS5003;49382;-25.924;28.194;2022-09-09T08:06:10;34;33;
40947;PMS5003;49382;-25.924;28.194;2022-09-09T08:08:35;31;30;
40947;PMS5003;49382;-25.924;28.194;2022-09-09T08:11:03;34;32;
40947;PMS5003;49382;-25.924;28.194;2022-09-09T08:13:26;35;34;
40947;PMS5003;49382;-25.924;28.194;2022-09-09T08:15:52;33;33;
40947;PMS5003;49382;-25.924;28.194;2022-09-09T08:18:17;32;31;
40947;PMS5003;49382;-25.924;28.194;2022-09-09T08:20:43;31;31;
40947;PMS5003;49382;-25.924;28.194;2022-09-09T08:23:09;31;31;
40947;PMS5003;49382;-25.924;28.194;2022-09-09T08:25:34;28;28;
40947;PMS5003;49382;-25.924;28.194;2022-09-09T08:28:00;29;28;
40947;PMS5003;49382;-25.924;28.194;2022-09-09T08:30:25;47;46;
40947;PMS5003;49382;-25.924;28.194;2022-09-09T08:32:51;88;86;
40947;PMS5003;49382;-25.924;28.194;2022-09-09T08:35:16;51;50;
40947;PMS5003;49382;-25.924;28.194;2022-09-09T08:37:41;60;59;
40947;PMS5003;49382;-25.924;28.194;2022-09-09T08:40:08;58;56;
40947;PMS5003;49382;-25.924;28.194;2022-09-09T08:42:34;50;50;
40947;PMS5003;49382;-25.924;28.194;2022-09-09T08:47:24;53;52;
40947;PMS5003;49382;-25.924;28.194;2022-09-09T08:49:51;41;41;
40947;PMS5003;49382;-25.924;28.194;2022-09-09T08:52:15;46;45;
40947;PMS5003;49382;-25.924;28.194;2022-09-09T08:54:38;60;60;
40947;PMS5003;49382;-25.924;28.194;2022-09-09T08:57:04;36;36;
40947;PMS5003;49382;-25.924;28.194;2022-09-09T08:59:29;38;38;
40947;PMS5003;49382;-25.924;28.194;2022-09-09T09:01:58;42;42;
40947;PMS5003;49382;-25.924;28.194;2022-09-09T09:04:24;58;58;
40947;PMS5003;49382;-25.924;28.194;2022-09-09T09:06:48;25;25;
40947;PMS5003;49382;-25.924;28.194;2022-09-09T09:09:13;26;25;
40947;PMS5003;49382;-25.924;28.194;2022-09-09T09:11:37;23;23;
40947;PMS5003;49382;-25.924;28.194;2022-09-09T09:14:03;67;67;
40947;PMS5003;49382;-25.924;28.194;2022-09-09T09:16:31;44;44;
40947;PMS5003;49382;-25.924;28.194;2022-09-09T09:18:53;74;74;
40947;PMS5003;49382;-25.924;28.194;2022-09-09T09:21:20;38;38;
40947;PMS5003;49382;-25.924;28.194;2022-09-09T09:23:48;72;72;
40947;PMS5003;49382;-25.924;28.194;2022-09-09T09:26:10;45;44;
40947;PMS5003;49382;-25.924;28.194;2022-09-09T09:28:35;53;51;
40947;PMS5003;49382;-25.924;28.194;2022-09-09T09:31:01;31;31;
40947;PMS5003;49382;-25.924;28.194;2022-09-09T09:33:27;82;82;
40947;PMS5003;49382;-25.924;28.194;2022-09-09T09:35:52;30;29;
40947;PMS5003;49382;-25.924;28.194;2022-09-09T09:38:18;51;51;
40947;PMS5003;49382;-25.924;28.194;2022-09-09T09:45:34;51;50;
40947;PMS5003;49382;-25.924;28.194;2022-09-09T09:47:59;45;44;
40947;PMS5003;49382;-25.924;28.194;2022-09-09T09:50:24;50;49;
40947;PMS5003;49382;-25.924;28.194;2022-09-09T09:52:54;37;36;
40947;PMS5003;49382;-25.924;28.194;2022-09-09T09:55:16;45;45;
40947;PMS5003;49382;-25.924;28.194;2022-09-09T09:57:41;77;77;
40947;PMS5003;49382;-25.924;28.194;2022-09-09T10:02:36;36;35;
40947;PMS5003;49382;-25.924;28.194;2022-09-09T10:05:01;37;36;
40947;PMS5003;49382;-25.924;28.194;2022-09-09T10:07:22;37;35;
40947;PMS5003;49382;-25.924;28.194;2022-09-09T10:09:49;31;30;
40947;PMS5003;49382;-25.924;28.194;2022-09-09T10:12:16;28;28;
40947;PMS5003;49382;-25.924;28.194;2022-09-09T10:14:40;34;34;
40947;PMS5003;49382;-25.924;28.194;2022-09-09T10:17:09;32;32;
40947;PMS5003;49382;-25.924;28.194;2022-09-09T10:19:31;27;27;
40947;PMS5003;49382;-25.924;28.194;2022-09-09T10:24:26;36;36;
40947;PMS5003;49382;-25.924;28.194;2022-09-09T10:26:48;37;35;
40947;PMS5003;49382;-25.924;28.194;2022-09-09T10:29:18;24;24;
40947;PMS5003;49382;-25.924;28.194;2022-09-09T10:31:40;33;33;
40947;PMS5003;49382;-25.924;28.194;2022-09-09T10:34:04;40;40;
40947;PMS5003;49382;-25.924;28.194;2022-09-09T10:36:28;48;48;
40947;PMS5003;49382;-25.924;28.194;2022-09-09T10:38:54;28;28;
40947;PMS5003;49382;-25.924;28.194;2022-09-09T10:41:19;30;30;
40947;PMS5003;49382;-25.924;28.194;2022-09-09T10:46:10;25;25;
40947;PMS5003;49382;-25.924;28.194;2022-09-09T10:48:38;21;21;
40947;PMS5003;49382;-25.924;28.194;2022-09-09T10:51:04;33;33;
40947;PMS5003;49382;-25.924;28.194;2022-09-09T10:53:30;35;34;
40947;PMS5003;49382;-25.924;28.194;2022-09-09T10:55:51;52;52;
40947;PMS5003;49382;-25.924;28.194;2022-09-09T10:58:17;46;46;
40947;PMS5003;49382;-25.924;28.194;2022-09-09T11:00:43;44;44;
40947;PMS5003;49382;-25.924;28.194;2022-09-09T11:03:09;38;38;
40947;PMS5003;49382;-25.924;28.194;2022-09-09T11:05:34;37;37;
40947;PMS5003;49382;-25.924;28.194;2022-09-09T11:07:58;32;32;
40947;PMS5003;49382;-25.924;28.194;2022-09-09T11:10:23;44;44;
40947;PMS5003;49382;-25.924;28.194;2022-09-09T11:12:48;61;61;
40947;PMS5003;49382;-25.924;28.194;2022-09-09T11:15:15;58;57;
40947;PMS5003;49382;-25.924;28.194;2022-09-09T11:17:39;56;56;
40947;PMS5003;49382;-25.924;28.194;2022-09-09T11:20:05;63;63;
40947;PMS5003;49382;-25.924;28.194;2022-09-09T11:22:30;65;65;
40947;PMS5003;49382;-25.924;28.194;2022-09-09T11:24:56;67;66;
40947;PMS5003;49382;-25.924;28.194;2022-09-09T11:27:21;159;159;
40947;PMS5003;49382;-25.924;28.194;2022-09-09T11:29:51;203;203;
40947;PMS5003;49382;-25.924;28.194;2022-09-09T11:32:15;153;152;
40947;PMS5003;49382;-25.924;28.194;2022-09-09T11:34:40;269;221;
40947;PMS5003;49382;-25.924;28.194;2022-09-09T11:37:07;144;131;
40947;PMS5003;49382;-25.924;28.194;2022-09-09T11:41:53;172;172;
40947;PMS5003;49382;-25.924;28.194;2022-09-09T11:44:19;157;157;
40947;PMS5003;49382;-25.924;28.194;2022-09-09T11:46:44;122;121;
40947;PMS5003;49382;-25.924;28.194;2022-09-09T11:51:36;163;163;
40947;PMS5003;49382;-25.924;28.194;2022-09-09T11:54:02;195;195;
40947;PMS5003;49382;-25.924;28.194;2022-09-09T11:56:28;188;188;
40947;PMS5003;49382;-25.924;28.194;2022-09-09T11:58:55;112;112;
40947;PMS5003;49382;-25.924;28.194;2022-09-09T12:03:44;21;21;
40947;PMS5003;49382;-25.924;28.194;2022-09-09T12:06:10;21;20;
40947;PMS5003;49382;-25.924;28.194;2022-09-09T12:08:35;20;19;
40947;PMS5003;49382;-25.924;28.194;2022-09-09T12:11:01;23;23;
40947;PMS5003;49382;-25.924;28.194;2022-09-09T12:13:27;28;27;
40947;PMS5003;49382;-25.924;28.194;2022-09-09T12:15:53;22;22;
40947;PMS5003;49382;-25.924;28.194;2022-09-09T12:18:21;23;23;
40947;PMS5003;49382;-25.924;28.194;2022-09-09T12:23:15;21;21;
40947;PMS5003;49382;-25.924;28.194;2022-09-09T12:25:38;21;20;
40947;PMS5003;49382;-25.924;28.194;2022-09-09T12:28:03;21;21;
40947;PMS5003;49382;-25.924;28.194;2022-09-09T12:30:28;22;22;
40947;PMS5003;49382;-25.924;28.194;2022-09-09T12:35:19;23;23;
40947;PMS5003;49382;-25.924;28.194;2022-09-09T12:37:44;23;23;
40947;PMS5003;49382;-25.924;28.194;2022-09-09T12:42:39;23;22;
40947;PMS5003;49382;-25.924;28.194;2022-09-09T12:45:00;22;22;
40947;PMS5003;49382;-25.924;28.194;2022-09-09T12:47:27;21;21;
40947;PMS5003;49382;-25.924;28.194;2022-09-09T12:49:51;26;25;
40947;PMS5003;49382;-25.924;28.194;2022-09-09T12:52:18;23;23;
40947;PMS5003;49382;-25.924;28.194;2022-09-09T12:54:43;24;23;
40947;PMS5003;49382;-25.924;28.194;2022-09-09T12:57:08;24;23;
40947;PMS5003;49382;-25.924;28.194;2022-09-09T12:59:37;24;24;
40947;PMS5003;49382;-25.924;28.194;2022-09-09T13:01:59;26;25;
40947;PMS5003;49382;-25.924;28.194;2022-09-09T13:04:24;24;24;
40947;PMS5003;49382;-25.924;28.194;2022-09-09T13:06:50;28;26;
40947;PMS5003;49382;-25.924;28.194;2022-09-09T13:09:16;33;31;
40947;PMS5003;49382;-25.924;28.194;2022-09-09T13:11:42;24;24;
40947;PMS5003;49382;-25.924;28.194;2022-09-09T13:16:34;44;44;
40947;PMS5003;49382;-25.924;28.194;2022-09-09T13:18:58;54;54;
40947;PMS5003;49382;-25.924;28.194;2022-09-09T13:23:49;30;30;
40947;PMS5003;49382;-25.924;28.194;2022-09-09T13:28:40;42;42;
40947;PMS5003;49382;-25.924;28.194;2022-09-09T13:31:05;81;81;
40947;PMS5003;49382;-25.924;28.194;2022-09-09T13:33:32;26;26;
40947;PMS5003;49382;-25.924;28.194;2022-09-09T13:35:56;26;26;
40947;PMS5003;49382;-25.924;28.194;2022-09-09T13:38:22;60;60;
40947;PMS5003;49382;-25.924;28.194;2022-09-09T13:43:14;80;80;
40947;PMS5003;49382;-25.924;28.194;2022-09-09T13:45:38;61;61;
40947;PMS5003;49382;-25.924;28.194;2022-09-09T13:50:28;28;28;
40947;PMS5003;49382;-25.924;28.194;2022-09-09T13:52:55;81;81;
40947;PMS5003;49382;-25.924;28.194;2022-09-09T13:55:19;27;27;
40947;PMS5003;49382;-25.924;28.194;2022-09-09T14:00:10;26;26;
40947;PMS5003;49382;-25.924;28.194;2022-09-09T14:02:35;60;59;
40947;PMS5003;49382;-25.924;28.194;2022-09-09T14:05:00;45;45;
40947;PMS5003;49382;-25.924;28.194;2022-09-09T14:07:25;80;78;
40947;PMS5003;49382;-25.924;28.194;2022-09-09T14:09:51;29;28;
40947;PMS5003;49382;-25.924;28.194;2022-09-09T14:12:16;33;33;
40947;PMS5003;49382;-25.924;28.194;2022-09-09T14:14:42;31;31;
40947;PMS5003;49382;-25.924;28.194;2022-09-09T14:17:07;33;33;
40947;PMS5003;49382;-25.924;28.194;2022-09-09T14:19:32;82;82;
40947;PMS5003;49382;-25.924;28.194;2022-09-09T14:21:58;87;86;
40947;PMS5003;49382;-25.924;28.194;2022-09-09T14:24:23;93;92;
40947;PMS5003;49382;-25.924;28.194;2022-09-09T14:26:48;67;66;
40947;PMS5003;49382;-25.924;28.194;2022-09-09T14:29:14;61;60;
40947;PMS5003;49382;-25.924;28.194;2022-09-09T14:31:39;72;71;
40947;PMS5003;49382;-25.924;28.194;2022-09-09T14:34:04;39;38;
40947;PMS5003;49382;-25.924;28.194;2022-09-09T14:36:30;29;28;
40947;PMS5003;49382;-25.924;28.194;2022-09-09T14:38:55;32;32;
40947;PMS5003;49382;-25.924;28.194;2022-09-09T14:41:20;45;44;
40947;PMS5003;49382;-25.924;28.194;2022-09-09T14:43:46;28;28;
40947;PMS5003;49382;-25.924;28.194;2022-09-09T14:46:12;109;109;
40947;PMS5003;49382;-25.924;28.194;2022-09-09T14:48:36;34;34;
40947;PMS5003;49382;-25.924;28.194;2022-09-09T14:51:06;30;30;
40947;PMS5003;49382;-25.924;28.194;2022-09-09T14:53:28;28;28;
40947;PMS5003;49382;-25.924;28.194;2022-09-09T14:55:54;31;31;
40947;PMS5003;49382;-25.924;28.194;2022-09-09T14:58:19;37;37;
40947;PMS5003;49382;-25.924;28.194;2022-09-09T15:00:44;30;30;
40947;PMS5003;49382;-25.924;28.194;2022-09-09T15:03:10;57;56;
40947;PMS5003;49382;-25.924;28.194;2022-09-09T15:05:36;41;41;
40947;PMS5003;49382;-25.924;28.194;2022-09-09T15:08:01;37;37;
40947;PMS5003;49382;-25.924;28.194;2022-09-09T15:10:26;54;54;
40947;PMS5003;49382;-25.924;28.194;2022-09-09T15:12:51;60;60;
40947;PMS5003;49382;-25.924;28.194;2022-09-09T15:15:17;42;40;
40947;PMS5003;49382;-25.924;28.194;2022-09-09T15:17:43;36;36;
40947;PMS5003;49382;-25.924;28.194;2022-09-09T15:20:09;32;32;
40947;PMS5003;49382;-25.924;28.194;2022-09-09T15:22:35;32;32;
40947;PMS5003;49382;-25.924;28.194;2022-09-09T15:25:00;35;35;
40947;PMS5003;49382;-25.924;28.194;2022-09-09T15:27:26;35;35;
40947;PMS5003;49382;-25.924;28.194;2022-09-09T15:29:51;31;29;
40947;PMS5003;49382;-25.924;28.194;2022-09-09T15:32:16;76;74;
40947;PMS5003;49382;-25.924;28.194;2022-09-09T15:34:41;60;60;
40947;PMS5003;49382;-25.924;28.194;2022-09-09T15:37:09;41;40;
40947;PMS5003;49382;-25.924;28.194;2022-09-09T15:39:33;33;33;
40947;PMS5003;49382;-25.924;28.194;2022-09-09T15:41:59;28;27;
40947;PMS5003;49382;-25.924;28.194;2022-09-09T15:44:24;27;27;
40947;PMS5003;49382;-25.924;28.194;2022-09-09T15:46:49;29;29;
40947;PMS5003;49382;-25.924;28.194;2022-09-09T15:49:15;30;30;
40947;PMS5003;49382;-25.924;28.194;2022-09-09T15:51:41;37;36;
40947;PMS5003;49382;-25.924;28.194;2022-09-09T15:54:06;32;32;
40947;PMS5003;49382;-25.924;28.194;2022-09-09T15:56:32;36;36;
40947;PMS5003;49382;-25.924;28.194;2022-09-09T15:58:57;45;45;
40947;PMS5003;49382;-25.924;28.194;2022-09-09T16:01:23;39;38;
40947;PMS5003;49382;-25.924;28.194;2022-09-09T16:03:49;33;32;
40947;PMS5003;49382;-25.924;28.194;2022-09-09T16:06:14;36;34;
40947;PMS5003;49382;-25.924;28.194;2022-09-09T16:08:40;43;43;
40947;PMS5003;49382;-25.924;28.194;2022-09-09T16:11:06;92;91;
40947;PMS5003;49382;-25.924;28.194;2022-09-09T16:13:32;122;120;
40947;PMS5003;49382;-25.924;28.194;2022-09-09T16:15:56;51;50;